Bethany, Canada
Current Conditions -  °F | °C
As of 6:00 AM on Sunday 21 Dec 2014 (Local Time) from CYPQ Reporting Station
Overcast Overcast  
Wind Chill: 25°   Ceiling: 9100
Heat Index: 25°   Visibility: 9mi
Dew Point: 21°   Wind: 2mph
Humidity: 86%   Direction: 80°E
Pressure: 30.28"   Gusts: NA
Location:  44.18°N, 78.57°W
Report Text: CYPQ 211100Z AUTO 08002KT 9SM SCT065 OVC091 M04/M06 A3028 RMK SLP265
Loading
Personal Weather Stations






























Interactive Weather Map New forecast layout! Learn more

10-Day Weather Forecast

Advertisements
Track Severe Weather on mobile